Time;durP1;ratioP1;P1;durP2;ratioP2;P2;SDS_P1;SDS_P2;PMS_P1;PMS_P2;Temp;Humidity;BMP_temperature;BMP_pressure;BME280_temperature;BME280_humidity;BME280_pressure;Samples;Min_cycle;Max_cycle;Signal;HPM_P1;HPM_P2
2021/09/19 00:01:08;;;;;;;5.25;4.20;;;13.10;93.10;;;;;;5045932;28;20098;-92
2021/09/19 00:03:33;;;;;;;4.50;3.75;;;13.10;93.10;;;;;;5043248;28;20025;-92
2021/09/19 00:05:59;;;;;;;4.13;3.72;;;13.10;93.10;;;;;;5045778;28;20029;-91
2021/09/19 00:08:27;;;;;;;4.47;4.05;;;13.10;93.10;;;;;;5044798;28;20032;-92
2021/09/19 00:10:53;;;;;;;4.38;3.97;;;13.10;93.10;;;;;;5047662;28;20021;-92
2021/09/19 00:13:19;;;;;;;3.80;3.50;;;13.10;93.10;;;;;;5057813;28;20087;-92
2021/09/19 00:15:45;;;;;;;5.22;4.00;;;13.10;93.10;;;;;;5049305;28;20036;-92
2021/09/19 00:18:12;;;;;;;5.15;4.15;;;13.00;93.00;;;;;;5048580;28;20059;-92
2021/09/19 00:20:39;;;;;;;5.32;4.72;;;13.00;93.00;;;;;;5045809;28;20033;-91
2021/09/19 00:23:08;;;;;;;5.40;4.60;;;13.00;93.00;;;;;;5040902;28;20017;-90
2021/09/19 00:25:34;;;;;;;5.05;4.40;;;12.90;93.10;;;;;;5042577;28;20067;-92
2021/09/19 00:28:00;;;;;;;5.18;4.57;;;12.90;93.10;;;;;;5047629;28;20013;-92
2021/09/19 00:30:26;;;;;;;6.15;4.15;;;12.90;93.10;;;;;;5048380;28;20086;-92
2021/09/19 00:32:52;;;;;;;7.03;4.35;;;12.80;93.10;;;;;;5045595;28;20045;-91
2021/09/19 00:35:18;;;;;;;4.35;3.95;;;12.80;93.10;;;;;;5047414;28;20039;-91
2021/09/19 00:37:47;;;;;;;4.45;4.03;;;12.70;93.10;;;;;;5046545;28;20112;-92
2021/09/19 00:40:13;;;;;;;5.45;4.20;;;12.70;93.20;;;;;;5038517;28;20025;-92
2021/09/19 00:42:39;;;;;;;4.35;3.95;;;12.60;93.30;;;;;;5044154;28;20096;-91
2021/09/19 00:45:17;;;;;;;7.47;4.50;;;12.60;93.30;;;;;;5050084;28;20082;-92
2021/09/19 00:47:43;;;;;;;5.30;4.18;;;12.60;93.40;;;;;;5050561;28;20059;-92
2021/09/19 00:50:11;;;;;;;4.18;3.80;;;12.60;93.30;;;;;;5049766;28;20033;-92
2021/09/19 00:52:41;;;;;;;6.75;4.35;;;12.60;93.40;;;;;;5050273;28;20041;-91
2021/09/19 00:55:09;;;;;;;4.72;4.32;;;12.60;93.40;;;;;;5049537;28;20025;-92
2021/09/19 00:57:47;;;;;;;4.72;4.07;;;12.60;93.40;;;;;;5048935;28;20021;-93
2021/09/19 01:00:17;;;;;;;5.43;4.80;;;12.50;93.40;;;;;;5047607;28;20029;-91
2021/09/19 01:02:44;;;;;;;4.80;4.13;;;12.50;93.30;;;;;;5048866;28;20021;-91
2021/09/19 01:05:12;;;;;;;5.22;3.75;;;12.50;93.40;;;;;;5049345;28;20033;-91
2021/09/19 01:07:38;;;;;;;4.65;4.20;;;12.40;93.30;;;;;;5050391;28;20059;-90
2021/09/19 01:10:05;;;;;;;4.50;3.97;;;12.40;93.40;;;;;;5047569;28;20048;-92
2021/09/19 01:12:34;;;;;;;4.18;3.78;;;12.40;93.40;;;;;;5058495;28;20179;-92
2021/09/19 01:15:03;;;;;;;4.22;3.83;;;12.40;93.40;;;;;;5048515;28;20021;-91
2021/09/19 01:17:29;;;;;;;4.57;3.90;;;12.30;93.40;;;;;;5054363;28;20024;-90
2021/09/19 01:19:58;;;;;;;4.45;4.05;;;12.30;93.40;;;;;;5047942;28;20013;-91
2021/09/19 01:22:34;;;;;;;5.57;4.97;;;12.30;93.50;;;;;;5050549;28;20040;-91
2021/09/19 01:25:02;;;;;;;5.20;4.18;;;12.20;93.40;;;;;;5046133;28;20025;-92
2021/09/19 01:27:31;;;;;;;5.20;4.07;;;12.20;93.50;;;;;;5048178;28;20037;-93
2021/09/19 01:29:59;;;;;;;4.20;3.80;;;12.10;93.50;;;;;;5049684;28;20029;-92
2021/09/19 01:32:25;;;;;;;4.65;3.50;;;12.10;93.60;;;;;;5046978;28;20029;-91
2021/09/19 01:34:53;;;;;;;4.35;3.67;;;12.10;93.60;;;;;;5048707;28;20029;-91
2021/09/19 01:37:19;;;;;;;5.32;4.28;;;12.10;93.60;;;;;;5051900;28;20017;-92
2021/09/19 01:39:45;;;;;;;6.78;4.30;;;12.00;93.60;;;;;;5051365;28;20021;-92
2021/09/19 01:42:12;;;;;;;5.70;3.83;;;12.00;93.60;;;;;;5051596;28;20036;-91
2021/09/19 01:44:43;;;;;;;5.38;4.57;;;12.00;93.60;;;;;;5050599;28;20048;-92
2021/09/19 01:47:09;;;;;;;4.63;4.18;;;11.90;93.70;;;;;;5048778;28;20044;-93
2021/09/19 01:49:35;;;;;;;4.15;3.75;;;11.90;93.70;;;;;;5050843;28;20259;-92
2021/09/19 01:52:01;;;;;;;4.80;4.32;;;11.80;93.70;;;;;;5049173;28;20129;-92
2021/09/19 01:54:30;;;;;;;4.85;4.35;;;11.80;93.70;;;;;;5053271;28;20052;-91
2021/09/19 01:56:58;;;;;;;5.00;4.50;;;11.80;93.70;;;;;;5053223;28;20090;-91
2021/09/19 01:59:24;;;;;;;4.88;4.38;;;11.80;93.80;;;;;;5052325;28;20039;-91
2021/09/19 02:01:50;;;;;;;4.70;4.30;;;11.70;93.80;;;;;;5052837;28;20024;-91
2021/09/19 02:04:16;;;;;;;5.95;4.97;;;11.70;93.80;;;;;;5052702;28;20116;-92
2021/09/19 02:06:45;;;;;;;5.10;4.40;;;11.60;93.80;;;;;;5052158;28;20032;-93
2021/09/19 02:09:11;;;;;;;4.55;4.15;;;11.60;93.90;;;;;;5052409;28;20025;-91
2021/09/19 02:11:37;;;;;;;6.53;4.05;;;11.50;93.90;;;;;;5050531;28;20040;-92
2021/09/19 02:14:04;;;;;;;4.57;4.07;;;11.50;93.90;;;;;;5052336;28;20021;-92
2021/09/19 02:16:30;;;;;;;4.57;4.13;;;11.50;94.00;;;;;;5053000;28;20029;-90
2021/09/19 02:18:59;;;;;;;6.25;4.55;;;11.50;94.10;;;;;;5053652;28;20048;-91
2021/09/19 02:21:36;;;;;;;4.03;3.58;;;11.60;94.10;;;;;;5055825;28;20049;-92
2021/09/19 02:24:05;;;;;;;4.32;3.90;;;11.60;94.20;;;;;;5051737;28;20092;-90
2021/09/19 02:26:31;;;;;;;5.20;3.72;;;11.60;94.10;;;;;;5055467;28;20025;-92
2021/09/19 02:28:57;;;;;;;5.40;4.30;;;11.60;94.10;;;;;;5053085;28;20048;-91
2021/09/19 02:31:25;;;;;;;5.35;4.15;;;11.60;94.00;;;;;;5048384;28;20035;-93
2021/09/19 02:33:51;;;;;;;5.00;4.50;;;11.60;94.00;;;;;;5050837;28;20037;-92
2021/09/19 02:36:17;;;;;;;4.80;4.30;;;11.60;94.10;;;;;;5052948;28;20271;-93
2021/09/19 02:38:49;;;;;;;4.60;3.95;;;11.50;94.00;;;;;;5047521;28;20026;-92
2021/09/19 02:41:17;;;;;;;4.25;3.75;;;11.50;94.20;;;;;;5043399;28;20109;-91
2021/09/19 02:43:46;;;;;;;4.40;4.00;;;11.40;94.10;;;;;;5044926;28;20055;-91
2021/09/19 02:46:15;;;;;;;7.53;4.72;;;11.40;94.10;;;;;;5054706;28;20190;-91
2021/09/19 02:48:42;;;;;;;4.53;4.05;;;11.40;94.20;;;;;;5056100;28;20037;-92
2021/09/19 02:51:11;;;;;;;6.05;4.10;;;11.40;94.20;;;;;;5054572;28;20033;-92
2021/09/19 02:53:37;;;;;;;4.80;4.32;;;11.30;94.20;;;;;;5055755;28;20021;-92
2021/09/19 02:56:06;;;;;;;5.03;4.18;;;11.30;94.20;;;;;;5051238;28;20037;-92
2021/09/19 02:58:37;;;;;;;4.85;4.35;;;11.30;94.20;;;;;;5067540;28;20111;-91
2021/09/19 03:01:05;;;;;;;6.38;4.05;;;11.30;94.30;;;;;;5053560;28;20213;-92
2021/09/19 03:03:34;;;;;;;4.85;4.03;;;11.30;94.50;;;;;;5052825;28;20044;-92
2021/09/19 03:06:00;;;;;;;4.68;4.15;;;11.30;94.30;;;;;;5054275;28;20021;-91
2021/09/19 03:08:32;;;;;;;5.20;4.38;;;11.30;94.30;;;;;;5056024;28;20044;-92
2021/09/19 03:11:11;;;;;;;4.67;4.17;;;11.20;94.30;;;;;;5056024;28;20037;-92
2021/09/19 03:13:37;;;;;;;5.38;4.25;;;11.20;94.40;;;;;;5074814;28;20048;-92
2021/09/19 03:16:03;;;;;;;5.53;4.35;;;11.20;94.40;;;;;;5052355;28;20075;-90
2021/09/19 03:18:32;;;;;;;4.30;3.88;;;11.10;94.40;;;;;;5070543;28;20055;-91
2021/09/19 03:21:04;;;;;;;5.70;4.00;;;11.20;94.50;;;;;;5051208;28;20040;-91
2021/09/19 03:23:36;;;;;;;5.07;3.60;;;11.10;94.40;;;;;;5050891;28;20092;-91
2021/09/19 03:26:05;;;;;;;4.97;4.27;;;11.10;94.40;;;;;;5052999;28;20033;-91
2021/09/19 03:28:39;;;;;;;5.70;4.07;;;11.10;94.50;;;;;;5053761;28;20083;-93
2021/09/19 03:31:04;;;;;;;4.72;3.55;;;11.10;94.60;;;;;;5051949;28;20033;-91
2021/09/19 03:33:31;;;;;;;3.80;3.50;;;11.10;94.60;;;;;;5051768;28;20055;-92
2021/09/19 03:35:59;;;;;;;4.25;3.85;;;11.10;94.70;;;;;;5053094;28;20025;-91
2021/09/19 03:38:30;;;;;;;3.95;3.53;;;11.10;94.60;;;;;;5051754;28;20021;-90
2021/09/19 03:41:04;;;;;;;7.45;3.85;;;11.20;94.60;;;;;;5055146;28;20024;-92
2021/09/19 03:43:56;;;;;;;4.03;3.63;;;11.20;94.60;;;;;;5054329;28;20025;-92
2021/09/19 03:46:24;;;;;;;4.10;3.70;;;11.20;94.60;;;;;;5051910;28;20089;-91
2021/09/19 03:48:50;;;;;;;5.50;3.70;;;11.20;94.50;;;;;;5054813;28;20060;-92
2021/09/19 03:53:44;;;;;;;4.65;3.97;;;11.10;94.50;;;;;;5045984;28;20107;-67
2021/09/19 03:56:10;;;;;;;4.20;3.80;;;11.10;94.50;;;;;;5048532;28;20029;-67
2021/09/19 03:58:36;;;;;;;7.15;4.28;;;11.10;94.50;;;;;;5050537;28;20013;-67
2021/09/19 04:01:01;;;;;;;4.75;3.97;;;11.10;94.50;;;;;;5027830;28;20024;-67
2021/09/19 04:03:27;;;;;;;5.97;4.78;;;11.10;94.50;;;;;;5030440;28;20028;-66
2021/09/19 04:05:52;;;;;;;5.15;4.35;;;11.10;94.60;;;;;;5048705;28;20029;-67
2021/09/19 04:08:18;;;;;;;6.78;4.88;;;11.00;94.50;;;;;;5027191;28;20029;-67
2021/09/19 04:10:44;;;;;;;5.75;4.75;;;11.00;94.60;;;;;;5037876;28;20056;-67
2021/09/19 04:13:09;;;;;;;7.05;4.65;;;10.90;94.60;;;;;;5046484;28;20048;-67
2021/09/19 04:15:35;;;;;;;7.65;5.13;;;10.90;94.60;;;;;;5031671;28;20032;-67
2021/09/19 04:18:00;;;;;;;5.82;4.72;;;10.90;94.90;;;;;;5031756;28;20373;-67
2021/09/19 04:20:26;;;;;;;6.38;4.88;;;10.90;94.70;;;;;;5044130;28;20021;-67
2021/09/19 04:22:51;;;;;;;7.45;5.20;;;10.90;94.70;;;;;;5044875;28;20108;-67
2021/09/19 04:25:17;;;;;;;7.53;5.90;;;10.80;94.70;;;;;;5046242;28;20033;-67
2021/09/19 04:27:43;;;;;;;9.18;5.60;;;10.80;94.80;;;;;;5031620;28;20025;-67
2021/09/19 04:30:09;;;;;;;6.97;4.78;;;10.80;94.90;;;;;;5049437;28;20115;-67
2021/09/19 04:32:36;;;;;;;7.07;5.22;;;10.80;94.90;;;;;;5045845;28;20503;-67
2021/09/19 04:35:02;;;;;;;7.70;5.35;;;10.70;94.80;;;;;;5048941;28;20089;-67
2021/09/19 04:37:28;;;;;;;7.60;5.32;;;10.70;94.90;;;;;;5049059;28;20033;-67
2021/09/19 04:39:54;;;;;;;7.88;5.75;;;10.70;94.90;;;;;;5038835;28;20025;-66
2021/09/19 04:42:22;;;;;;;7.43;5.93;;;10.60;94.90;;;;;;5045970;28;20469;-67
2021/09/19 04:44:48;;;;;;;8.52;6.18;;;10.60;95.00;;;;;;5021501;28;20044;-67
2021/09/19 04:47:13;;;;;;;10.68;6.25;;;10.60;95.10;;;;;;5029143;28;20025;-67
2021/09/19 04:49:39;;;;;;;9.70;5.97;;;10.60;95.10;;;;;;5040464;28;20509;-67
2021/09/19 04:52:06;;;;;;;8.95;6.40;;;10.60;95.10;;;;;;5035730;28;20112;-67
2021/09/19 04:54:32;;;;;;;10.93;7.22;;;10.60;95.10;;;;;;5028793;28;20029;-67
2021/09/19 04:56:59;;;;;;;11.35;7.13;;;10.60;95.10;;;;;;5050161;28;20049;-67
2021/09/19 04:59:24;;;;;;;11.15;7.13;;;10.60;95.10;;;;;;5028501;28;20083;-67
2021/09/19 05:01:50;;;;;;;14.10;7.78;;;10.50;95.10;;;;;;5047891;28;20025;-67
2021/09/19 05:04:16;;;;;;;12.63;6.95;;;10.50;95.10;;;;;;5045273;28;20488;-67
2021/09/19 05:06:42;;;;;;;11.75;7.32;;;10.50;95.20;;;;;;5049229;28;20029;-67
2021/09/19 05:09:07;;;;;;;11.50;7.60;;;10.50;95.40;;;;;;5027484;28;20397;-67
2021/09/19 05:11:34;;;;;;;12.15;7.45;;;10.50;95.50;;;;;;5044992;28;20037;-67
2021/09/19 05:13:59;;;;;;;10.75;6.90;;;10.50;95.30;;;;;;5044156;28;20032;-66
2021/09/19 05:16:26;;;;;;;11.00;7.43;;;10.50;95.30;;;;;;5029249;28;20373;-66
2021/09/19 05:18:52;;;;;;;12.50;6.97;;;10.50;95.30;;;;;;5042043;28;20024;-66
2021/09/19 05:21:17;;;;;;;12.30;7.32;;;10.50;95.30;;;;;;5045464;28;20025;-66
2021/09/19 05:23:43;;;;;;;12.80;7.10;;;10.60;95.40;;;;;;5040245;28;20504;-66
2021/09/19 05:26:09;;;;;;;11.82;6.60;;;10.60;95.40;;;;;;5045624;28;20036;-66
2021/09/19 05:28:34;;;;;;;12.30;6.55;;;10.60;95.40;;;;;;5052592;28;20056;-66
2021/09/19 05:31:00;;;;;;;10.52;7.20;;;10.60;95.40;;;;;;5048085;28;20117;-66
2021/09/19 05:33:25;;;;;;;10.60;7.03;;;10.70;95.40;;;;;;5051460;28;20067;-66
2021/09/19 05:35:51;;;;;;;11.20;6.43;;;10.70;95.30;;;;;;5050593;28;20044;-66
2021/09/19 05:38:17;;;;;;;11.10;7.65;;;10.70;95.40;;;;;;5052025;28;20061;-66
2021/09/19 05:40:43;;;;;;;8.95;6.78;;;10.70;95.40;;;;;;5044447;28;20017;-65
2021/09/19 05:43:09;;;;;;;10.40;6.85;;;10.70;95.40;;;;;;5034448;28;20467;-66
2021/09/19 05:45:34;;;;;;;10.32;7.10;;;10.70;95.40;;;;;;5051558;28;20028;-67
2021/09/19 05:48:00;;;;;;;11.07;7.10;;;10.70;95.40;;;;;;5052824;28;20044;-66
2021/09/19 05:50:26;;;;;;;13.18;8.07;;;10.80;95.40;;;;;;5049571;28;20457;-65
2021/09/19 05:52:52;;;;;;;11.45;7.50;;;10.80;95.40;;;;;;5052191;28;20033;-66
2021/09/19 05:55:18;;;;;;;14.07;7.80;;;10.80;95.40;;;;;;5049543;28;20725;-65
2021/09/19 05:57:44;;;;;;;12.35;8.00;;;10.80;95.40;;;;;;5052086;28;20025;-66
2021/09/19 06:00:10;;;;;;;11.15;7.78;;;10.90;95.40;;;;;;5042743;28;20028;-67
2021/09/19 06:02:36;;;;;;;12.90;8.07;;;10.90;95.40;;;;;;5045390;28;20021;-67
2021/09/19 06:05:03;;;;;;;16.35;8.68;;;10.90;95.40;;;;;;5033390;28;20066;-67
2021/09/19 06:07:29;;;;;;;13.90;8.85;;;10.90;95.40;;;;;;5049938;28;20536;-67
2021/09/19 06:09:54;;;;;;;13.32;8.88;;;10.90;95.40;;;;;;5042168;28;20109;-66
2021/09/19 06:12:20;;;;;;;12.68;8.40;;;10.90;95.40;;;;;;5057151;28;20029;-66
2021/09/19 06:14:45;;;;;;;13.43;8.10;;;11.00;95.50;;;;;;5051084;28;20025;-67
2021/09/19 06:17:11;;;;;;;13.15;8.05;;;11.00;95.50;;;;;;5049959;28;20032;-67
2021/09/19 06:19:37;;;;;;;12.20;8.30;;;11.00;95.60;;;;;;5042574;28;20021;-67
2021/09/19 06:22:03;;;;;;;13.00;8.82;;;11.10;95.60;;;;;;5045859;28;20045;-67
2021/09/19 06:24:30;;;;;;;14.35;9.35;;;11.20;95.60;;;;;;5042536;28;20101;-68
2021/09/19 06:26:59;;;;;;;12.38;8.48;;;11.30;95.60;;;;;;5050962;28;20024;-67
2021/09/19 06:29:26;;;;;;;13.50;8.50;;;11.30;95.60;;;;;;5043999;28;20025;-67
2021/09/19 06:31:52;;;;;;;12.65;8.27;;;11.40;95.60;;;;;;5042665;28;20842;-68
2021/09/19 06:34:17;;;;;;;14.90;10.00;;;11.50;95.60;;;;;;5028740;28;20033;-66
2021/09/19 06:36:43;;;;;;;14.90;9.80;;;11.50;95.60;;;;;;5038220;28;20033;-68
2021/09/19 06:39:09;;;;;;;15.43;10.02;;;11.60;95.60;;;;;;5045654;28;20033;-66
2021/09/19 06:41:35;;;;;;;15.85;10.35;;;11.60;95.60;;;;;;5044085;28;20409;-69
2021/09/19 06:44:01;;;;;;;18.05;10.73;;;11.70;95.60;;;;;;5044472;28;20091;-67
2021/09/19 06:46:30;;;;;;;16.45;11.18;;;11.70;95.60;;;;;;5033633;28;20021;-67
2021/09/19 06:48:56;;;;;;;19.35;10.43;;;11.70;95.50;;;;;;5048120;28;20512;-67
2021/09/19 06:51:23;;;;;;;16.17;10.60;;;11.80;95.50;;;;;;5050217;28;20028;-67
2021/09/19 06:53:48;;;;;;;18.30;11.50;;;11.70;95.50;;;;;;5051340;28;20044;-67
2021/09/19 06:56:14;;;;;;;18.52;11.70;;;11.70;95.50;;;;;;5051425;28;20029;-67
2021/09/19 06:58:40;;;;;;;19.90;12.55;;;11.70;95.60;;;;;;5051904;28;20036;-67
2021/09/19 07:01:07;;;;;;;20.38;12.10;;;11.70;95.60;;;;;;5051544;28;20063;-67
2021/09/19 07:03:33;;;;;;;19.42;12.18;;;11.70;95.60;;;;;;5044019;28;20021;-67
2021/09/19 07:05:59;;;;;;;18.42;11.50;;;11.70;95.70;;;;;;5050231;28;20039;-68
2021/09/19 07:08:24;;;;;;;18.70;11.82;;;11.70;95.70;;;;;;5043236;28;20112;-67
2021/09/19 07:10:50;;;;;;;18.58;11.80;;;11.80;95.80;;;;;;5051670;28;20105;-67
2021/09/19 07:13:16;;;;;;;16.48;11.02;;;11.80;95.80;;;;;;5016628;28;20499;-67
2021/09/19 07:15:43;;;;;;;18.58;11.63;;;11.80;95.80;;;;;;5042677;28;20029;-67
2021/09/19 07:18:10;;;;;;;17.35;11.20;;;11.90;95.90;;;;;;5033232;28;20029;-67
2021/09/19 07:20:36;;;;;;;16.95;11.27;;;12.00;95.90;;;;;;5038426;28;20062;-67
2021/09/19 07:23:02;;;;;;;16.55;11.00;;;12.00;95.90;;;;;;5043853;28;20021;-66
2021/09/19 07:25:28;;;;;;;16.13;10.63;;;12.00;95.80;;;;;;5051723;28;20428;-68
2021/09/19 07:27:54;;;;;;;16.55;11.18;;;12.00;95.80;;;;;;5051190;28;20036;-68
2021/09/19 07:30:19;;;;;;;18.00;11.25;;;12.10;95.80;;;;;;5051035;28;20033;-68
2021/09/19 07:32:45;;;;;;;15.73;10.52;;;12.10;95.90;;;;;;5050242;28;20032;-68
2021/09/19 07:35:11;;;;;;;15.20;10.50;;;12.20;95.90;;;;;;5045564;28;20103;-67
2021/09/19 07:37:37;;;;;;;16.88;10.45;;;12.20;95.80;;;;;;5050161;28;20029;-67
2021/09/19 07:40:05;;;;;;;17.20;11.02;;;12.30;95.80;;;;;;5051310;28;20029;-68
2021/09/19 07:42:31;;;;;;;17.90;11.27;;;12.30;95.80;;;;;;5032711;28;20028;-66
2021/09/19 07:44:57;;;;;;;15.43;10.73;;;12.30;95.80;;;;;;5050148;28;20024;-67
2021/09/19 07:47:26;;;;;;;14.43;10.13;;;12.30;95.70;;;;;;5045600;28;20064;-68
2021/09/19 07:49:52;;;;;;;14.85;10.43;;;12.30;95.80;;;;;;5035658;28;20408;-68
2021/09/19 07:52:18;;;;;;;16.00;11.02;;;12.40;95.80;;;;;;5039276;28;20120;-67
2021/09/19 07:54:44;;;;;;;14.85;10.38;;;12.40;95.90;;;;;;5049718;28;20100;-67
2021/09/19 07:57:10;;;;;;;15.40;10.00;;;12.50;95.90;;;;;;5042711;28;20108;-67
2021/09/19 07:59:36;;;;;;;14.20;10.05;;;12.60;95.90;;;;;;5050654;28;20027;-66
2021/09/19 08:02:03;;;;;;;15.07;10.10;;;12.70;95.90;;;;;;5050674;28;20451;-67
2021/09/19 08:04:28;;;;;;;13.73;9.90;;;12.70;95.90;;;;;;5035049;28;20104;-67
2021/09/19 08:06:54;;;;;;;13.52;9.63;;;12.90;95.90;;;;;;5039378;28;20103;-66
2021/09/19 08:09:20;;;;;;;14.43;10.27;;;13.00;96.00;;;;;;5050871;28;20100;-67
2021/09/19 08:11:45;;;;;;;14.25;9.70;;;13.00;95.90;;;;;;5037998;28;20422;-67
2021/09/19 08:14:11;;;;;;;12.77;9.43;;;13.10;95.90;;;;;;5047730;28;20036;-67
2021/09/19 08:16:40;;;;;;;13.13;9.60;;;13.20;95.90;;;;;;5032046;28;20076;-70
2021/09/19 08:19:08;;;;;;;12.27;9.25;;;13.30;95.90;;;;;;5048429;28;20127;-67
2021/09/19 08:21:36;;;;;;;12.95;9.93;;;13.40;95.90;;;;;;5039740;28;20025;-66
2021/09/19 08:24:03;;;;;;;11.57;9.15;;;13.60;95.90;;;;;;5049710;28;20480;-66
2021/09/19 08:26:28;;;;;;;13.15;9.70;;;13.70;95.80;;;;;;5023473;28;20404;-66
2021/09/19 08:28:54;;;;;;;11.35;8.90;;;13.80;95.70;;;;;;5049676;28;20032;-65
2021/09/19 08:31:20;;;;;;;12.65;9.07;;;13.80;95.70;;;;;;5049598;28;20059;-66
2021/09/19 08:33:46;;;;;;;12.82;9.77;;;13.90;95.60;;;;;;5033571;28;20032;-66
2021/09/19 08:36:12;;;;;;;11.05;9.00;;;14.00;95.60;;;;;;5065893;28;20031;-66
2021/09/19 08:38:37;;;;;;;11.98;8.63;;;14.00;95.60;;;;;;5062889;28;20022;-66
2021/09/19 08:41:03;;;;;;;12.65;9.13;;;14.00;95.50;;;;;;5035925;28;20067;-66
2021/09/19 08:43:29;;;;;;;12.00;9.13;;;14.00;95.50;;;;;;5038557;28;20116;-66
2021/09/19 08:45:54;;;;;;;14.85;9.98;;;14.10;95.50;;;;;;5040928;28;20087;-65
2021/09/19 08:48:21;;;;;;;11.75;8.55;;;14.10;95.50;;;;;;5047316;28;20037;-66
2021/09/19 08:50:51;;;;;;;11.35;8.60;;;14.10;95.40;;;;;;5030977;28;20075;-66
2021/09/19 08:53:17;;;;;;;12.05;9.07;;;14.10;95.40;;;;;;5048624;28;20033;-66
2021/09/19 08:55:44;;;;;;;11.60;8.43;;;14.20;95.40;;;;;;5038163;28;20080;-66
2021/09/19 08:58:10;;;;;;;13.80;8.52;;;14.20;95.30;;;;;;5049219;28;20024;-68
2021/09/19 09:00:44;;;;;;;10.30;8.23;;;14.20;95.30;;;;;;5037490;28;20033;-66
2021/09/19 09:03:12;;;;;;;10.27;7.72;;;14.20;95.20;;;;;;5027786;28;20113;-66
2021/09/19 09:05:38;;;;;;;10.30;7.90;;;14.30;95.20;;;;;;5013475;28;20044;-66
2021/09/19 09:08:04;;;;;;;10.45;7.85;;;14.30;95.20;;;;;;5045493;28;20067;-68
2021/09/19 09:10:44;;;;;;;11.95;8.07;;;14.50;95.20;;;;;;5050074;28;20037;-68
2021/09/19 09:13:20;;;;;;;8.23;6.93;;;14.50;95.10;;;;;;5030819;28;20079;-68
2021/09/19 09:15:46;;;;;;;9.40;7.35;;;14.60;94.90;;;;;;5048749;28;20086;-68
2021/09/19 09:18:31;;;;;;;11.85;6.82;;;14.70;94.90;;;;;;5024653;28;20075;-68
2021/09/19 09:21:06;;;;;;;9.23;6.90;;;14.90;94.90;;;;;;5040053;28;20067;-68
2021/09/19 09:24:07;;;;;;;7.97;7.18;;;15.00;94.80;;;;;;5038396;28;20116;-68
2021/09/19 09:26:37;;;;;;;8.32;6.70;;;15.00;94.70;;;;;;5029148;28;20083;-67
2021/09/19 09:29:06;;;;;;;7.47;6.15;;;15.20;94.70;;;;;;5044788;28;20029;-69
2021/09/19 09:31:36;;;;;;;8.48;6.93;;;15.50;94.70;;;;;;5032539;28;20021;-68
2021/09/19 09:34:24;;;;;;;7.53;6.68;;;15.80;94.60;;;;;;5037131;28;20026;-68
2021/09/19 09:36:59;;;;;;;8.30;6.50;;;16.10;94.60;;;;;;5043164;28;20052;-67
2021/09/19 09:39:30;;;;;;;7.95;6.72;;;16.40;94.30;;;;;;5048562;28;20500;-68
2021/09/19 09:42:03;;;;;;;12.63;6.43;;;16.70;94.00;;;;;;5023854;28;20136;-66
2021/09/19 09:44:40;;;;;;;8.48;5.78;;;16.90;93.70;;;;;;5048312;28;20421;-68
2021/09/19 09:47:09;;;;;;;8.82;6.43;;;17.10;93.40;;;;;;5049593;28;20102;-67
2021/09/19 09:49:40;;;;;;;9.88;5.88;;;17.20;93.20;;;;;;5049537;28;20079;-68
2021/09/19 09:52:12;;;;;;;7.15;5.65;;;17.30;92.90;;;;;;5038934;23;20037;-67
2021/09/19 09:54:43;;;;;;;11.02;6.28;;;17.40;92.90;;;;;;5012946;28;20053;-68
2021/09/19 09:57:10;;;;;;;9.38;7.78;;;17.50;92.70;;;;;;5033816;28;20109;-68
2021/09/19 09:59:36;;;;;;;6.75;6.07;;;17.50;92.30;;;;;;5029426;28;20041;-67
2021/09/19 10:02:03;;;;;;;7.38;6.68;;;17.30;92.20;;;;;;5029711;28;20040;-67
2021/09/19 10:04:33;;;;;;;7.22;6.35;;;17.20;92.10;;;;;;5010773;28;20025;-67
2021/09/19 10:06:59;;;;;;;8.00;6.75;;;17.10;91.90;;;;;;5029439;28;20037;-67
2021/09/19 10:09:26;;;;;;;7.18;6.20;;;17.00;92.00;;;;;;5029375;28;20025;-67
2021/09/19 10:11:54;;;;;;;8.63;5.88;;;16.90;92.40;;;;;;5029828;28;20022;-67
2021/09/19 10:14:20;;;;;;;7.55;6.45;;;17.00;92.60;;;;;;5029358;28;20021;-66
2021/09/19 10:16:46;;;;;;;8.10;6.38;;;17.00;92.70;;;;;;5014593;28;20120;-67
2021/09/19 10:19:12;;;;;;;10.48;8.35;;;17.10;93.30;;;;;;5033384;28;20104;-65
2021/09/19 10:21:39;;;;;;;7.90;6.90;;;17.10;93.30;;;;;;5032414;28;20026;-66
2021/09/19 10:24:05;;;;;;;8.65;6.25;;;17.10;93.30;;;;;;5032268;28;20018;-66
2021/09/19 10:26:31;;;;;;;8.77;5.60;;;17.00;93.50;;;;;;5032833;28;20025;-67
2021/09/19 10:28:59;;;;;;;6.97;6.28;;;17.00;93.80;;;;;;5032749;28;20025;-65
2021/09/19 10:31:28;;;;;;;6.30;5.55;;;17.10;93.80;;;;;;5032771;28;20103;-67
2021/09/19 10:34:07;;;;;;;7.07;6.38;;;17.10;93.80;;;;;;5032337;28;20092;-66
2021/09/19 10:36:34;;;;;;;6.57;5.88;;;17.20;93.60;;;;;;5032806;28;20037;-66
2021/09/19 10:39:25;;;;;;;6.53;5.88;;;17.30;94.00;;;;;;5032716;28;20013;-66
2021/09/19 10:42:10;;;;;;;7.07;5.75;;;17.50;93.60;;;;;;5024434;28;20103;-66
2021/09/19 10:44:45;;;;;;;7.20;6.20;;;17.60;93.70;;;;;;5048507;28;20050;-66
2021/09/19 10:47:12;;;;;;;7.60;6.40;;;17.60;93.40;;;;;;5032797;28;20029;-66
2021/09/19 10:49:39;;;;;;;6.80;5.70;;;17.50;93.60;;;;;;5032540;28;20299;-66
2021/09/19 10:52:06;;;;;;;8.02;6.18;;;17.60;93.70;;;;;;5032186;28;20516;-65
2021/09/19 10:54:52;;;;;;;8.45;6.93;;;17.60;93.90;;;;;;5031087;28;20041;-65
2021/09/19 10:57:29;;;;;;;6.57;5.88;;;17.70;93.50;;;;;;5032563;28;20446;-65
2021/09/19 11:00:15;;;;;;;6.57;5.95;;;17.70;93.70;;;;;;5032009;28;20053;-65
2021/09/19 11:02:42;;;;;;;11.32;6.72;;;17.90;93.70;;;;;;5031173;28;20095;-66
2021/09/19 11:05:25;;;;;;;7.00;5.93;;;18.10;93.90;;;;;;5032093;28;20029;-67
2021/09/19 11:08:04;;;;;;;46.60;9.30;;;18.10;93.60;;;;;;5032278;28;20025;-65
2021/09/19 11:10:30;;;;;;;8.25;6.07;;;18.20;93.70;;;;;;5031550;28;20426;-66
2021/09/19 11:12:56;;;;;;;9.85;8.85;;;18.30;93.50;;;;;;5031270;28;20524;-66
2021/09/19 11:15:24;;;;;;;7.38;6.03;;;18.40;93.50;;;;;;5031783;28;20039;-66
2021/09/19 11:17:51;;;;;;;6.90;6.20;;;18.60;93.70;;;;;;5032331;28;20100;-65
2021/09/19 11:20:17;;;;;;;6.85;6.15;;;18.60;93.80;;;;;;5031818;28;20017;-67
2021/09/19 11:22:43;;;;;;;6.95;5.60;;;18.70;93.70;;;;;;5013236;28;20151;-66
2021/09/19 11:25:11;;;;;;;6.63;5.85;;;18.90;93.60;;;;;;5031094;28;20038;-66
2021/09/19 11:27:39;;;;;;;6.05;5.45;;;18.90;93.50;;;;;;5031810;28;20504;-66
2021/09/19 11:30:06;;;;;;;6.72;6.05;;;19.00;93.40;;;;;;5031803;28;20543;-65
2021/09/19 11:32:32;;;;;;;7.85;5.75;;;19.10;93.50;;;;;;5013545;28;20025;-67
2021/09/19 11:35:02;;;;;;;6.82;5.80;;;19.20;93.30;;;;;;5013367;28;20040;-65
2021/09/19 11:37:28;;;;;;;7.35;5.65;;;19.40;92.90;;;;;;5031433;28;20379;-65
2021/09/19 11:39:54;;;;;;;6.90;6.20;;;19.40;93.10;;;;;;5031626;28;20030;-66
2021/09/19 11:42:20;;;;;;;7.53;5.97;;;19.60;93.00;;;;;;5023463;28;20499;-65
2021/09/19 11:44:48;;;;;;;8.05;6.03;;;19.70;92.90;;;;;;5030822;28;20105;-65
2021/09/19 11:47:20;;;;;;;8.30;6.45;;;19.90;92.80;;;;;;5013633;28;20477;-66
2021/09/19 11:49:47;;;;;;;6.40;5.80;;;20.00;92.50;;;;;;5031748;28;20032;-67
2021/09/19 11:52:13;;;;;;;7.40;5.88;;;20.10;92.80;;;;;;5031252;28;20075;-70
2021/09/19 11:54:43;;;;;;;6.30;5.70;;;20.10;92.70;;;;;;5026293;28;20025;-67
2021/09/19 11:57:10;;;;;;;24.27;16.98;;;20.10;92.50;;;;;;5031696;28;20109;-66
2021/09/19 11:59:42;;;;;;;8.43;6.72;;;20.20;92.60;;;;;;5031491;28;20032;-66
2021/09/19 12:02:10;;;;;;;8.77;5.75;;;20.30;92.40;;;;;;5031690;28;20018;-66
2021/09/19 12:04:36;;;;;;;6.00;5.40;;;20.50;92.50;;;;;;5030168;28;20028;-66
2021/09/19 12:07:02;;;;;;;5.75;5.15;;;20.50;92.30;;;;;;5030970;28;20021;-67
2021/09/19 12:09:28;;;;;;;7.38;5.15;;;20.60;92.00;;;;;;5030770;28;20078;-67
2021/09/19 12:11:55;;;;;;;8.23;5.75;;;20.60;91.80;;;;;;5031211;28;20100;-68
2021/09/19 12:14:28;;;;;;;6.45;5.63;;;20.60;91.50;;;;;;5029972;28;20368;-67
2021/09/19 12:17:04;;;;;;;6.47;5.88;;;20.70;91.20;;;;;;5030999;28;20024;-67
2021/09/19 12:19:32;;;;;;;7.38;5.80;;;20.70;91.10;;;;;;5030945;28;20078;-67
2021/09/19 12:22:04;;;;;;;5.60;5.00;;;20.70;91.10;;;;;;5030653;28;20025;-66
2021/09/19 12:24:31;;;;;;;6.53;5.60;;;20.70;91.20;;;;;;5011454;28;20029;-66
2021/09/19 12:27:09;;;;;;;6.10;5.43;;;20.60;91.30;;;;;;5010842;28;20048;-65
2021/09/19 12:29:35;;;;;;;7.85;5.13;;;20.60;91.10;;;;;;5011025;28;20034;-66
2021/09/19 12:32:01;;;;;;;5.85;5.25;;;20.70;91.70;;;;;;5011010;28;20033;-67
2021/09/19 12:34:27;;;;;;;6.50;4.95;;;20.70;91.60;;;;;;5010564;28;20034;-66
2021/09/19 12:36:54;;;;;;;5.68;4.78;;;20.70;91.40;;;;;;5009909;28;20548;-67
2021/09/19 12:39:31;;;;;;;5.40;4.90;;;20.70;91.50;;;;;;5029994;28;20025;-66
2021/09/19 12:42:04;;;;;;;5.32;4.82;;;20.80;91.30;;;;;;5027243;28;20026;-67
2021/09/19 12:44:34;;;;;;;5.80;4.63;;;20.90;91.40;;;;;;5027262;28;20430;-65
2021/09/19 12:47:03;;;;;;;5.32;4.82;;;20.90;91.00;;;;;;5025151;28;20029;-66
2021/09/19 12:49:31;;;;;;;9.43;5.38;;;20.90;90.70;;;;;;5030528;28;20025;-66